sensor_id;sensor_type;location;lat;lon;timestamp;pressure;altitude;pressure_sealevel;temperature;humidity
62864;BME280;48954;59.950;11.014;2023-04-01T00:55:46;99413.90;;;-7.47;59.24
62864;BME280;48954;59.950;11.014;2023-04-01T00:58:31;99416.50;;;-7.49;58.97
62864;BME280;48954;59.950;11.014;2023-04-01T01:01:18;99420.96;;;-7.50;59.27
62864;BME280;48954;59.950;11.014;2023-04-01T01:03:46;99420.15;;;-7.52;59.23
62864;BME280;48954;59.950;11.014;2023-04-01T01:10:50;99419.31;;;-7.56;59.65
62864;BME280;48954;59.950;11.014;2023-04-01T01:14:08;99420.55;;;-7.59;59.86
62864;BME280;48954;59.950;11.014;2023-04-01T01:17:45;99420.73;;;-7.61;60.15
62864;BME280;48954;59.950;11.014;2023-04-01T01:28:24;99428.00;;;-7.74;59.91
62864;BME280;48954;59.950;11.014;2023-04-01T01:40:32;99438.95;;;-7.86;60.33
62864;BME280;48954;59.950;11.014;2023-04-01T01:43:39;99443.52;;;-7.88;59.92
62864;BME280;48954;59.950;11.014;2023-04-01T01:46:48;99443.98;;;-7.88;60.13
62864;BME280;48954;59.950;11.014;2023-04-01T01:49:51;99446.86;;;-7.89;60.39
62864;BME280;48954;59.950;11.014;2023-04-01T01:53:00;99447.52;;;-7.88;60.00
62864;BME280;48954;59.950;11.014;2023-04-01T01:55:52;99448.13;;;-7.87;60.13
62864;BME280;48954;59.950;11.014;2023-04-01T01:58:55;99452.53;;;-7.85;60.15
62864;BME280;48954;59.950;11.014;2023-04-01T02:01:42;99453.41;;;-7.83;60.06
62864;BME280;48954;59.950;11.014;2023-04-01T02:04:45;99457.92;;;-7.81;60.18
62864;BME280;48954;59.950;11.014;2023-04-01T02:07:21;99462.23;;;-7.79;60.24
62864;BME280;48954;59.950;11.014;2023-04-01T02:10:25;99465.27;;;-7.77;60.11
62864;BME280;48954;59.950;11.014;2023-04-01T02:13:24;99472.25;;;-7.75;60.26
62864;BME280;48954;59.950;11.014;2023-04-01T02:16:29;99467.46;;;-7.74;60.18
62864;BME280;48954;59.950;11.014;2023-04-01T02:19:38;99472.02;;;-7.73;60.27
62864;BME280;48954;59.950;11.014;2023-04-01T02:22:57;99471.87;;;-7.73;60.22
62864;BME280;48954;59.950;11.014;2023-04-01T02:25:43;99474.66;;;-7.75;60.03
62864;BME280;48954;59.950;11.014;2023-04-01T02:28:25;99477.41;;;-7.76;60.46
62864;BME280;48954;59.950;11.014;2023-04-01T02:30:54;99480.44;;;-7.77;60.09
62864;BME280;48954;59.950;11.014;2023-04-01T02:33:20;99484.91;;;-7.80;60.13
62864;BME280;48954;59.950;11.014;2023-04-01T02:35:51;99483.14;;;-7.81;59.98
62864;BME280;48954;59.950;11.014;2023-04-01T02:38:18;99485.03;;;-7.82;60.41
62864;BME280;48954;59.950;11.014;2023-04-01T02:41:01;99486.88;;;-7.84;60.10
62864;BME280;48954;59.950;11.014;2023-04-01T02:44:00;99489.95;;;-7.85;60.34
62864;BME280;48954;59.950;11.014;2023-04-01T02:47:03;99498.83;;;-7.88;60.59
62864;BME280;48954;59.950;11.014;2023-04-01T02:49:59;99504.34;;;-7.90;60.47
62864;BME280;48954;59.950;11.014;2023-04-01T02:52:47;99502.39;;;-7.95;60.55
62864;BME280;48954;59.950;11.014;2023-04-01T02:55:27;99504.09;;;-7.97;60.45
62864;BME280;48954;59.950;11.014;2023-04-01T02:58:08;99507.27;;;-7.99;60.66
62864;BME280;48954;59.950;11.014;2023-04-01T03:00:49;99510.84;;;-8.03;60.54
62864;BME280;48954;59.950;11.014;2023-04-01T03:03:29;99507.93;;;-8.04;60.34
62864;BME280;48954;59.950;11.014;2023-04-01T03:06:15;99510.69;;;-8.06;60.15
62864;BME280;48954;59.950;11.014;2023-04-01T03:08:56;99514.02;;;-8.09;60.32
62864;BME280;48954;59.950;11.014;2023-04-01T03:11:37;99519.59;;;-8.11;60.51
62864;BME280;48954;59.950;11.014;2023-04-01T03:14:17;99519.71;;;-8.13;60.79
62864;BME280;48954;59.950;11.014;2023-04-01T03:17:03;99516.09;;;-8.14;60.46
62864;BME280;48954;59.950;11.014;2023-04-01T03:19:48;99524.02;;;-8.17;60.81
62864;BME280;48954;59.950;11.014;2023-04-01T03:22:29;99526.77;;;-8.19;60.89
62864;BME280;48954;59.950;11.014;2023-04-01T03:25:09;99526.52;;;-8.20;60.84
62864;BME280;48954;59.950;11.014;2023-04-01T03:27:36;99532.49;;;-8.21;60.73
62864;BME280;48954;59.950;11.014;2023-04-01T03:30:21;99535.70;;;-8.23;60.56
62864;BME280;48954;59.950;11.014;2023-04-01T03:32:52;99537.27;;;-8.25;60.60
62864;BME280;48954;59.950;11.014;2023-04-01T03:35:21;99540.50;;;-8.29;60.74
62864;BME280;48954;59.950;11.014;2023-04-01T03:37:51;99545.09;;;-8.32;60.63
62864;BME280;48954;59.950;11.014;2023-04-01T03:40:24;99543.60;;;-8.38;60.60
62864;BME280;48954;59.950;11.014;2023-04-01T03:42:50;99548.69;;;-8.40;61.03
62864;BME280;48954;59.950;11.014;2023-04-01T03:45:26;99551.09;;;-8.42;61.18
62864;BME280;48954;59.950;11.014;2023-04-01T03:47:53;99557.02;;;-8.43;61.67
62864;BME280;48954;59.950;11.014;2023-04-01T03:50:26;99555.91;;;-8.45;61.35
62864;BME280;48954;59.950;11.014;2023-04-01T03:52:53;99557.24;;;-8.46;61.13
62864;BME280;48954;59.950;11.014;2023-04-01T03:55:21;99559.45;;;-8.47;61.03
62864;BME280;48954;59.950;11.014;2023-04-01T03:58:01;99561.79;;;-8.48;61.15
62864;BME280;48954;59.950;11.014;2023-04-01T04:00:31;99565.16;;;-8.50;61.32
62864;BME280;48954;59.950;11.014;2023-04-01T04:02:58;99564.64;;;-8.52;61.11
62864;BME280;48954;59.950;11.014;2023-04-01T04:05:46;99563.73;;;-8.55;61.65
62864;BME280;48954;59.950;11.014;2023-04-01T04:08:13;99564.02;;;-8.56;61.41
62864;BME280;48954;59.950;11.014;2023-04-01T04:10:40;99568.66;;;-8.57;61.41
62864;BME280;48954;59.950;11.014;2023-04-01T04:13:11;99571.84;;;-8.58;61.27
62864;BME280;48954;59.950;11.014;2023-04-01T04:15:38;99578.36;;;-8.60;61.45
62864;BME280;48954;59.950;11.014;2023-04-01T04:18:05;99581.48;;;-8.62;61.62
62864;BME280;48954;59.950;11.014;2023-04-01T04:20:32;99583.25;;;-8.64;61.29
62864;BME280;48954;59.950;11.014;2023-04-01T04:23:03;99589.20;;;-8.68;61.64
62864;BME280;48954;59.950;11.014;2023-04-01T04:25:30;99585.77;;;-8.71;61.63
62864;BME280;48954;59.950;11.014;2023-04-01T04:27:58;99594.67;;;-8.73;61.66
62864;BME280;48954;59.950;11.014;2023-04-01T04:30:24;99595.60;;;-8.74;61.35
62864;BME280;48954;59.950;11.014;2023-04-01T04:32:51;99596.16;;;-8.75;61.82
62864;BME280;48954;59.950;11.014;2023-04-01T04:35:18;99596.92;;;-8.77;61.91
62864;BME280;48954;59.950;11.014;2023-04-01T04:37:44;99601.08;;;-8.80;61.71
62864;BME280;48954;59.950;11.014;2023-04-01T04:40:11;99602.42;;;-8.81;61.74
62864;BME280;48954;59.950;11.014;2023-04-01T04:42:37;99606.29;;;-8.83;62.00
62864;BME280;48954;59.950;11.014;2023-04-01T04:45:03;99605.27;;;-8.84;62.24
62864;BME280;48954;59.950;11.014;2023-04-01T04:47:31;99607.84;;;-8.86;61.82
62864;BME280;48954;59.950;11.014;2023-04-01T04:49:57;99612.08;;;-8.87;61.70
62864;BME280;48954;59.950;11.014;2023-04-01T04:52:24;99616.02;;;-8.88;61.78
62864;BME280;48954;59.950;11.014;2023-04-01T04:54:50;99616.34;;;-8.87;62.01
62864;BME280;48954;59.950;11.014;2023-04-01T04:57:16;99618.52;;;-8.85;61.89
62864;BME280;48954;59.950;11.014;2023-04-01T04:59:43;99621.05;;;-8.84;62.30
62864;BME280;48954;59.950;11.014;2023-04-01T05:02:11;99630.39;;;-8.83;62.09
62864;BME280;48954;59.950;11.014;2023-04-01T05:04:39;99629.07;;;-8.83;61.98
62864;BME280;48954;59.950;11.014;2023-04-01T05:07:05;99632.18;;;-8.81;62.04
62864;BME280;48954;59.950;11.014;2023-04-01T05:09:31;99630.83;;;-8.79;61.73
62864;BME280;48954;59.950;11.014;2023-04-01T05:11:57;99629.33;;;-8.77;62.03
62864;BME280;48954;59.950;11.014;2023-04-01T05:14:26;99633.64;;;-8.75;62.36
62864;BME280;48954;59.950;11.014;2023-04-01T05:16:53;99633.95;;;-8.74;62.00
62864;BME280;48954;59.950;11.014;2023-04-01T05:19:23;99636.09;;;-8.71;62.00
62864;BME280;48954;59.950;11.014;2023-04-01T05:21:49;99640.08;;;-8.68;62.15
62864;BME280;48954;59.950;11.014;2023-04-01T05:24:19;99643.48;;;-8.65;62.12
62864;BME280;48954;59.950;11.014;2023-04-01T05:26:51;99650.52;;;-8.60;62.24
62864;BME280;48954;59.950;11.014;2023-04-01T05:29:33;99651.59;;;-8.57;62.28
62864;BME280;48954;59.950;11.014;2023-04-01T05:31:59;99651.02;;;-8.53;62.10
62864;BME280;48954;59.950;11.014;2023-04-01T05:34:32;99655.32;;;-8.49;61.91
62864;BME280;48954;59.950;11.014;2023-04-01T05:37:00;99659.11;;;-8.43;62.18
62864;BME280;48954;59.950;11.014;2023-04-01T05:39:27;99657.80;;;-8.39;61.97
62864;BME280;48954;59.950;11.014;2023-04-01T05:41:59;99663.91;;;-8.31;62.12
62864;BME280;48954;59.950;11.014;2023-04-01T05:44:26;99661.41;;;-8.24;62.36
62864;BME280;48954;59.950;11.014;2023-04-01T05:46:54;99667.47;;;-8.16;62.40
62864;BME280;48954;59.950;11.014;2023-04-01T05:49:20;99667.60;;;-8.10;61.99
62864;BME280;48954;59.950;11.014;2023-04-01T05:51:48;99664.80;;;-8.02;62.06
62864;BME280;48954;59.950;11.014;2023-04-01T05:54:15;99666.41;;;-7.92;61.90
62864;BME280;48954;59.950;11.014;2023-04-01T05:56:43;99663.60;;;-7.82;62.14
62864;BME280;48954;59.950;11.014;2023-04-01T05:59:22;99672.52;;;-7.69;61.35
62864;BME280;48954;59.950;11.014;2023-04-01T06:01:50;99667.95;;;-7.57;61.12
62864;BME280;48954;59.950;11.014;2023-04-01T06:04:17;99669.84;;;-7.42;61.38
62864;BME280;48954;59.950;11.014;2023-04-01T06:06:45;99672.68;;;-7.27;60.94
62864;BME280;48954;59.950;11.014;2023-04-01T06:10:01;99671.03;;;-7.08;60.88
62864;BME280;48954;59.950;11.014;2023-04-01T06:12:43;99674.36;;;-6.91;60.58
62864;BME280;48954;59.950;11.014;2023-04-01T06:15:36;99674.79;;;-6.71;60.63
62864;BME280;48954;59.950;11.014;2023-04-01T06:18:44;99676.09;;;-6.53;60.36
62864;BME280;48954;59.950;11.014;2023-04-01T06:27:26;99689.83;;;-5.87;59.49
62864;BME280;48954;59.950;11.014;2023-04-01T06:33:12;99694.46;;;-5.41;58.85
62864;BME280;48954;59.950;11.014;2023-04-01T06:35:59;99695.33;;;-5.19;58.82
62864;BME280;48954;59.950;11.014;2023-04-01T06:38:51;99701.10;;;-4.97;58.97
62864;BME280;48954;59.950;11.014;2023-04-01T06:53:16;99716.83;;;-3.80;57.66
62864;BME280;48954;59.950;11.014;2023-04-01T06:55:52;99723.54;;;-3.60;57.11
62864;BME280;48954;59.950;11.014;2023-04-01T06:58:30;99720.42;;;-3.40;57.47
62864;BME280;48954;59.950;11.014;2023-04-01T07:01:03;99725.92;;;-3.20;57.36
62864;BME280;48954;59.950;11.014;2023-04-01T07:03:52;99723.80;;;-3.02;57.06
62864;BME280;48954;59.950;11.014;2023-04-01T07:06:27;99728.41;;;-2.82;56.42
62864;BME280;48954;59.950;11.014;2023-04-01T07:09:06;99726.31;;;-2.63;56.43
62864;BME280;48954;59.950;11.014;2023-04-01T07:12:00;99729.86;;;-2.42;55.91
62864;BME280;48954;59.950;11.014;2023-04-01T07:14:44;99730.88;;;-2.25;55.79
62864;BME280;48954;59.950;11.014;2023-04-01T07:17:40;99731.92;;;-2.03;55.29
62864;BME280;48954;59.950;11.014;2023-04-01T07:20:26;99738.38;;;-1.80;55.11
62864;BME280;48954;59.950;11.014;2023-04-01T07:23:07;99740.84;;;-1.60;54.49
62864;BME280;48954;59.950;11.014;2023-04-01T07:25:39;99740.52;;;-1.42;54.22
62864;BME280;48954;59.950;11.014;2023-04-01T07:28:13;99743.13;;;-1.25;53.90
62864;BME280;48954;59.950;11.014;2023-04-01T07:36:48;99744.73;;;-0.46;52.76
62864;BME280;48954;59.950;11.014;2023-04-01T07:43:01;99746.25;;;-0.04;52.16
62864;BME280;48954;59.950;11.014;2023-04-01T07:48:58;99755.54;;;0.05;51.46
62864;BME280;48954;59.950;11.014;2023-04-01T07:51:40;99756.39;;;0.06;51.11
62864;BME280;48954;59.950;11.014;2023-04-01T07:54:33;99756.02;;;0.18;51.03
62864;BME280;48954;59.950;11.014;2023-04-01T08:02:47;99763.62;;;0.63;50.28
62864;BME280;48954;59.950;11.014;2023-04-01T08:15:15;99773.11;;;1.45;49.38
62864;BME280;48954;59.950;11.014;2023-04-01T08:21:23;99778.00;;;1.84;48.55
62864;BME280;48954;59.950;11.014;2023-04-01T08:23:57;99777.40;;;1.94;48.37
62864;BME280;48954;59.950;11.014;2023-04-01T08:26:49;99776.83;;;2.11;48.41
62864;BME280;48954;59.950;11.014;2023-04-01T08:29:46;99778.50;;;2.22;47.71
62864;BME280;48954;59.950;11.014;2023-04-01T08:32:58;99776.74;;;2.28;47.39
62864;BME280;48954;59.950;11.014;2023-04-01T08:36:23;99777.46;;;2.30;47.35
62864;BME280;48954;59.950;11.014;2023-04-01T08:39:21;99780.27;;;2.56;47.10
62864;BME280;48954;59.950;11.014;2023-04-01T08:48:57;99778.35;;;3.21;46.05
62864;BME280;48954;59.950;11.014;2023-04-01T08:55:02;99779.83;;;3.63;45.92
62864;BME280;48954;59.950;11.014;2023-04-01T09:21:32;99794.17;;;6.33;42.44
62864;BME280;48954;59.950;11.014;2023-04-01T12:12:39;99832.76;;;10.16;31.39
62864;BME280;48954;59.950;11.014;2023-04-01T12:28:53;99840.60;;;9.23;32.02
62864;BME280;48954;59.950;11.014;2023-04-01T12:31:42;99844.55;;;9.24;32.18
62864;BME280;48954;59.950;11.014;2023-04-01T12:34:33;99840.52;;;9.20;32.26
62864;BME280;48954;59.950;11.014;2023-04-01T12:41:03;99844.23;;;10.00;32.24
62864;BME280;48954;59.950;11.014;2023-04-01T12:55:56;99852.66;;;10.25;31.63
62864;BME280;48954;59.950;11.014;2023-04-01T13:27:42;99856.93;;;10.45;31.75
62864;BME280;48954;59.950;11.014;2023-04-01T13:30:57;99861.49;;;10.49;31.29
62864;BME280;48954;59.950;11.014;2023-04-01T13:36:42;99864.22;;;9.79;31.28
62864;BME280;48954;59.950;11.014;2023-04-01T13:45:09;99865.61;;;9.76;31.28
62864;BME280;48954;59.950;11.014;2023-04-01T13:48:32;99867.16;;;9.66;31.46
62864;BME280;48954;59.950;11.014;2023-04-01T13:50:49;99866.39;;;10.25;31.24
62864;BME280;48954;59.950;11.014;2023-04-01T13:56:56;99863.40;;;11.81;30.77
62864;BME280;48954;59.950;11.014;2023-04-01T14:02:31;99863.01;;;13.61;29.58
62864;BME280;48954;59.950;11.014;2023-04-01T14:11:10;99868.22;;;13.13;28.85
62864;BME280;48954;59.950;11.014;2023-04-01T14:14:33;99869.98;;;11.82;28.91
62864;BME280;48954;59.950;11.014;2023-04-01T14:32:11;99879.33;;;11.43;29.62
62864;BME280;48954;59.950;11.014;2023-04-01T14:37:58;99890.57;;;10.92;30.19
62864;BME280;48954;59.950;11.014;2023-04-01T16:47:14;99977.19;;;5.73;30.66
62864;BME280;48954;59.950;11.014;2023-04-01T16:55:41;99993.02;;;5.36;31.55
62864;BME280;48954;59.950;11.014;2023-04-01T16:58:28;99997.67;;;5.24;31.99
62864;BME280;48954;59.950;11.014;2023-04-01T17:03:46;99998.96;;;5.05;32.22
62864;BME280;48954;59.950;11.014;2023-04-01T17:12:20;100004.39;;;4.82;32.44
62864;BME280;48954;59.950;11.014;2023-04-01T17:20:40;100013.15;;;4.61;32.50
62864;BME280;48954;59.950;11.014;2023-04-01T17:23:24;100014.16;;;4.52;33.23
62864;BME280;48954;59.950;11.014;2023-04-01T17:28:50;100021.48;;;4.34;33.13
62864;BME280;48954;59.950;11.014;2023-04-01T17:34:22;100025.86;;;4.16;33.72
62864;BME280;48954;59.950;11.014;2023-04-01T17:50:18;100040.95;;;3.45;36.18
62864;BME280;48954;59.950;11.014;2023-04-01T17:55:59;100048.02;;;3.16;37.31
62864;BME280;48954;59.950;11.014;2023-04-01T17:59:09;100054.68;;;3.02;37.89
62864;BME280;48954;59.950;11.014;2023-04-01T18:01:49;100060.20;;;2.85;38.57
62864;BME280;48954;59.950;11.014;2023-04-01T18:08:08;100065.18;;;2.54;38.83
62864;BME280;48954;59.950;11.014;2023-04-01T18:25:53;100095.19;;;1.67;40.49
62864;BME280;48954;59.950;11.014;2023-04-01T18:28:38;100099.63;;;1.55;40.81
62864;BME280;48954;59.950;11.014;2023-04-01T18:31:26;100104.31;;;1.41;40.37
62864;BME280;48954;59.950;11.014;2023-04-01T18:37:42;100111.63;;;1.19;41.02
62864;BME280;48954;59.950;11.014;2023-04-01T18:40:37;100119.66;;;1.12;41.59
62864;BME280;48954;59.950;11.014;2023-04-01T18:51:57;100137.58;;;0.77;42.32
62864;BME280;48954;59.950;11.014;2023-04-01T18:55:14;100144.85;;;0.68;42.34
62864;BME280;48954;59.950;11.014;2023-04-01T18:57:46;100146.49;;;0.61;42.72
62864;BME280;48954;59.950;11.014;2023-04-01T19:00:36;100153.31;;;0.53;42.89
62864;BME280;48954;59.950;11.014;2023-04-01T19:05:52;100158.89;;;0.33;43.49
62864;BME280;48954;59.950;11.014;2023-04-01T19:08:39;100164.30;;;0.25;43.46
62864;BME280;48954;59.950;11.014;2023-04-01T19:11:26;100165.23;;;0.14;43.30
62864;BME280;48954;59.950;11.014;2023-04-01T19:16:46;100178.08;;;-0.08;43.78
62864;BME280;48954;59.950;11.014;2023-04-01T19:19:23;100183.11;;;-0.18;44.14
62864;BME280;48954;59.950;11.014;2023-04-01T19:24:41;100192.13;;;-0.42;44.33
62864;BME280;48954;59.950;11.014;2023-04-01T19:27:23;100205.23;;;-0.52;44.60
62864;BME280;48954;59.950;11.014;2023-04-01T19:32:37;100215.55;;;-0.71;45.38
62864;BME280;48954;59.950;11.014;2023-04-01T19:38:24;100217.36;;;-0.87;45.55
62864;BME280;48954;59.950;11.014;2023-04-01T19:47:29;100228.50;;;-1.13;46.17
62864;BME280;48954;59.950;11.014;2023-04-01T19:52:52;100238.71;;;-1.29;46.56
62864;BME280;48954;59.950;11.014;2023-04-01T19:55:37;100247.48;;;-1.39;46.59
62864;BME280;48954;59.950;11.014;2023-04-01T20:00:45;100255.47;;;-1.53;47.08
62864;BME280;48954;59.950;11.014;2023-04-01T20:08:45;100270.41;;;-1.76;47.54
62864;BME280;48954;59.950;11.014;2023-04-01T20:11:48;100272.61;;;-1.82;47.83
62864;BME280;48954;59.950;11.014;2023-04-01T20:14:45;100275.56;;;-1.88;47.90
62864;BME280;48954;59.950;11.014;2023-04-01T20:19:42;100285.91;;;-2.00;48.22
62864;BME280;48954;59.950;11.014;2023-04-01T20:22:37;100288.30;;;-2.07;48.57
62864;BME280;48954;59.950;11.014;2023-04-01T20:27:43;100293.48;;;-2.21;48.70
62864;BME280;48954;59.950;11.014;2023-04-01T20:30:33;100299.64;;;-2.27;49.09
62864;BME280;48954;59.950;11.014;2023-04-01T20:36:13;100309.05;;;-2.40;49.67
62864;BME280;48954;59.950;11.014;2023-04-01T20:44:46;100321.30;;;-2.53;50.43
62864;BME280;48954;59.950;11.014;2023-04-01T20:47:41;100320.55;;;-2.58;50.44
62864;BME280;48954;59.950;11.014;2023-04-01T20:53:15;100333.59;;;-2.67;50.66
62864;BME280;48954;59.950;11.014;2023-04-01T20:58:58;100342.72;;;-2.78;51.28
62864;BME280;48954;59.950;11.014;2023-04-01T21:06:51;100350.69;;;-2.91;51.59
62864;BME280;48954;59.950;11.014;2023-04-01T21:09:23;100351.52;;;-2.95;51.52
62864;BME280;48954;59.950;11.014;2023-04-01T21:14:54;100358.46;;;-3.01;52.12
62864;BME280;48954;59.950;11.014;2023-04-01T21:17:38;100360.52;;;-3.04;51.95
62864;BME280;48954;59.950;11.014;2023-04-01T21:23:13;100369.01;;;-3.11;52.22
62864;BME280;48954;59.950;11.014;2023-04-01T21:25:50;100369.14;;;-3.15;52.28
62864;BME280;48954;59.950;11.014;2023-04-01T21:28:52;100373.80;;;-3.17;52.70
62864;BME280;48954;59.950;11.014;2023-04-01T21:31:36;100375.05;;;-3.20;52.37
62864;BME280;48954;59.950;11.014;2023-04-01T21:37:30;100382.48;;;-3.27;53.07
62864;BME280;48954;59.950;11.014;2023-04-01T21:40:18;100388.90;;;-3.29;53.06
62864;BME280;48954;59.950;11.014;2023-04-01T21:43:22;100389.75;;;-3.34;53.35
62864;BME280;48954;59.950;11.014;2023-04-01T21:58:35;100423.50;;;-3.52;53.99
62864;BME280;48954;59.950;11.014;2023-04-01T22:07:20;100439.09;;;-3.70;54.84
62864;BME280;48954;59.950;11.014;2023-04-01T22:12:44;100441.27;;;-3.79;54.97
62864;BME280;48954;59.950;11.014;2023-04-01T22:18:04;100449.73;;;-3.87;55.24
62864;BME280;48954;59.950;11.014;2023-04-01T22:23:42;100448.27;;;-3.96;55.86
62864;BME280;48954;59.950;11.014;2023-04-01T22:34:19;100471.14;;;-4.12;56.49
62864;BME280;48954;59.950;11.014;2023-04-01T22:40:34;100479.84;;;-4.20;56.53
62864;BME280;48954;59.950;11.014;2023-04-01T22:43:12;100482.47;;;-4.23;56.35
62864;BME280;48954;59.950;11.014;2023-04-01T22:46:15;100487.17;;;-4.26;56.59
62864;BME280;48954;59.950;11.014;2023-04-01T22:49:18;100487.41;;;-4.30;56.11
62864;BME280;48954;59.950;11.014;2023-04-01T22:55:12;100491.14;;;-4.28;55.48
62864;BME280;48954;59.950;11.014;2023-04-01T22:57:52;100496.69;;;-4.27;55.36
62864;BME280;48954;59.950;11.014;2023-04-01T23:03:21;100504.94;;;-4.24;55.55
62864;BME280;48954;59.950;11.014;2023-04-01T23:06:03;100512.80;;;-4.27;55.61
62864;BME280;48954;59.950;11.014;2023-04-01T23:09:02;100515.93;;;-4.26;55.81
62864;BME280;48954;59.950;11.014;2023-04-01T23:11:49;100516.35;;;-4.26;55.56
62864;BME280;48954;59.950;11.014;2023-04-01T23:14:39;100522.09;;;-4.27;55.44
62864;BME280;48954;59.950;11.014;2023-04-01T23:20:21;100536.81;;;-4.27;55.66
62864;BME280;48954;59.950;11.014;2023-04-01T23:33:29;100544.59;;;-4.27;55.64
62864;BME280;48954;59.950;11.014;2023-04-01T23:36:13;100543.62;;;-4.28;55.19
62864;BME280;48954;59.950;11.014;2023-04-01T23:38:42;100548.68;;;-4.27;55.29
62864;BME280;48954;59.950;11.014;2023-04-01T23:41:17;100551.46;;;-4.28;55.33
62864;BME280;48954;59.950;11.014;2023-04-01T23:43:57;100552.31;;;-4.29;55.57
62864;BME280;48954;59.950;11.014;2023-04-01T23:46:25;100552.67;;;-4.31;55.95
62864;BME280;48954;59.950;11.014;2023-04-01T23:48:51;100555.22;;;-4.32;55.91
62864;BME280;48954;59.950;11.014;2023-04-01T23:51:22;100555.50;;;-4.34;55.56
62864;BME280;48954;59.950;11.014;2023-04-01T23:54:01;100561.05;;;-4.36;55.84
62864;BME280;48954;59.950;11.014;2023-04-01T23:56:38;100561.91;;;-4.38;56.07
62864;BME280;48954;59.950;11.014;2023-04-01T23:59:04;100572.23;;;-4.41;56.49
